Chapin, IA (50427)

11:43 PM CDT on May 23, 2015 (GMT -0500)
Beeds Addition | | Change Station
CLOSE
Current Station
Personal Weather Station
Location: Hampton, IA
Elevation: 1145 ft
Nearby Weather Stations

Elev 1145 ft 42.74 °N, 93.20 °W | Updated 7 seconds ago

Overcast
Overcast
67.6 °F
Feels Like 67.6 °F
N
2.2
Wind Variable Wind from South
Gusts 3.8 mph

Today
High -- | Low -- °F
--% Chance of Precip.
Yesterday
High -- | Low -- °F
Precip. -- in
5:43 AM 8:36 PM
Waxing Crescent, 36% visible
Pressure 30.11 in
Visibility 10.0 miles
Clouds Overcast 6000 ft
Dew Point 53 °F
Humidity 60%
Rainfall 0.00 in
Snow Depth Not available.
UV 0 out of 12
Pollen 7.00 out of 12
Air Quality Not available.
Flu Activity Sporadic
METAR KMCW 240353Z AUTO 00000KT 10SM OVC060 18/11 A3013 RMK AO2 SLP194 T01830111

More Conditions Fewer Conditions

Pressure 30.11 in
Visibility 10.0 miles
Clouds Overcast 6000 ft
Dew Point 53 °F
Humidity 60%
Rainfall 0.00 in
Snow Depth Not available.
UV 0 out of 12
Pollen 7.00 out of 12
Air Quality Not available.
Flu Activity Sporadic
METAR KMCW 240353Z AUTO 00000KT 10SM OVC060 18/11 A3013 RMK AO2 SLP194 T01830111

More Conditions Fewer Conditions

10-Day Weather Forecast

Almanac

Astronomy

May. 23, 2015 Rise Set
Actual Time
Civil Twilight
Nautical Twilight
Astronomical Twilight
Moon
Length of Visible Light
Length of Day
Tomorrow will be .
, % of the Moon is Illuminated

Today's Extremes

State Highs State Lows

Community

WunderPhotos

Upload Photos

1,823,688 photos uploaded!

WunderBlogs® & News

Nearby

Air Quality

  Air Quality AQ Index Pollutant
Not available.

Snow Depth

Station Depth Elevation

Earthquake Activity

City Distance Mag. Time & Date
Minimum magnitude displayed is 2.5.

Coastal Water Temperatures

Place Temperature

Stations

Nearby Weather Stations

Station Location Temp. Windchill Dew Point Humidity Wind Precip. Elev Updated Type